Time;durP1;ratioP1;P1;durP2;ratioP2;P2;SDS_P1;SDS_P2;PMS_P1;PMS_P2;Temp;Humidity;BMP_temperature;BMP_pressure;BME280_temperature;BME280_humidity;BME280_pressure;Samples;Min_cycle;Max_cycle;Signal;HPM_P1;HPM_P2
2021/03/08 00:00:17;;;;;;;78.22;43.10;;;;;;;3.17;76.93;102468.56;5006234;28;20686;-70
2021/03/08 00:02:43;;;;;;;76.65;42.03;;;;;;;3.19;76.81;102466.72;5010283;28;20045;-70
2021/03/08 00:05:10;;;;;;;77.32;42.97;;;;;;;3.19;76.69;102467.56;5006610;28;20045;-71
2021/03/08 00:07:36;;;;;;;76.05;43.20;;;;;;;3.21;76.82;102464.84;5008569;28;20089;-69
2021/03/08 00:10:04;;;;;;;77.45;42.40;;;;;;;3.02;76.25;102438.38;5005433;28;20084;-69
2021/03/08 00:12:29;;;;;;;76.77;42.63;;;;;;;3.19;76.66;102461.44;4997407;28;20031;-69
2021/03/08 00:14:55;;;;;;;73.05;42.08;;;;;;;3.21;76.95;102452.53;5005457;28;20033;-71
2021/03/08 00:17:20;;;;;;;73.05;42.10;;;;;;;3.21;76.63;102455.16;5008282;28;20057;-72
2021/03/08 00:19:46;;;;;;;69.47;41.05;;;;;;;2.84;76.97;102403.97;5010483;28;20030;-69
2021/03/08 00:22:11;;;;;;;80.10;42.20;;;;;;;3.22;76.76;102458.66;5011380;28;20032;-69
2021/03/08 00:24:37;;;;;;;77.35;42.30;;;;;;;3.21;77.13;102456.94;5009512;28;20036;-71
2021/03/08 00:27:02;;;;;;;75.13;41.47;;;;;;;3.00;76.58;102414.72;5010388;28;20080;-71
2021/03/08 00:29:28;;;;;;;83.03;42.30;;;;;;;3.22;76.87;102448.97;5008135;28;20072;-71
2021/03/08 00:31:53;;;;;;;71.68;41.97;;;;;;;3.23;76.99;102455.09;5011192;28;20038;-71
2021/03/08 00:34:19;;;;;;;72.70;42.25;;;;;;;3.20;76.97;102440.25;5007303;28;20033;-71
2021/03/08 00:36:44;;;;;;;71.20;41.05;;;;;;;3.22;76.94;102448.97;5003504;28;20479;-71
2021/03/08 00:39:10;;;;;;;73.47;41.08;;;;;;;3.25;77.08;102444.50;5009894;28;20496;-71
2021/03/08 00:41:35;;;;;;;76.88;44.10;;;;;;;3.22;76.91;102441.06;5009494;28;20022;-71
2021/03/08 00:44:01;;;;;;;72.82;41.92;;;;;;;3.24;76.96;102445.41;5009164;28;20041;-71
2021/03/08 00:46:26;;;;;;;73.53;41.75;;;;;;;3.24;76.98;102448.91;5010139;28;20128;-71
2021/03/08 00:48:52;;;;;;;73.43;41.53;;;;;;;3.24;76.88;102448.06;5008108;28;20140;-71
2021/03/08 00:51:17;;;;;;;72.43;41.83;;;;;;;3.02;76.38;102412.03;5004545;28;20030;-69
2021/03/08 00:53:43;;;;;;;72.88;40.90;;;;;;;3.30;76.49;102450.41;5008342;28;20293;-69
2021/03/08 00:56:08;;;;;;;74.57;40.85;;;;;;;3.31;76.51;102449.50;5020756;28;20041;-69
2021/03/08 00:58:34;;;;;;;71.85;41.10;;;;;;;3.34;76.35;102457.28;5008805;28;20038;-70
2021/03/08 01:00:59;;;;;;;75.22;41.03;;;;;;;3.13;76.21;102425.59;5008362;28;20037;-71
2021/03/08 01:03:25;;;;;;;76.32;42.90;;;;;;;2.95;76.24;102392.97;5008479;28;20068;-71
2021/03/08 01:05:50;;;;;;;72.10;39.95;;;;;;;3.31;76.33;102445.09;5005155;28;20144;-71
2021/03/08 01:08:16;;;;;;;79.20;42.35;;;;;;;3.30;76.32;102446.00;5007918;28;20083;-71
2021/03/08 01:10:41;;;;;;;76.82;41.92;;;;;;;3.01;76.38;102400.63;5002822;28;20037;-71
2021/03/08 01:13:07;;;;;;;73.95;41.50;;;;;;;3.06;76.90;102410.97;5004857;28;20038;-70
2021/03/08 01:15:32;;;;;;;72.13;39.72;;;;;;;3.25;77.26;102445.34;5007465;28;20034;-70
2021/03/08 01:17:58;;;;;;;74.00;41.85;;;;;;;3.25;77.13;102440.06;5009522;28;20030;-71
2021/03/08 01:20:23;;;;;;;72.82;39.85;;;;;;;2.94;77.04;102383.34;5007915;28;20129;-69
2021/03/08 01:22:49;;;;;;;68.85;40.13;;;;;;;3.19;77.59;102430.63;5007012;28;20080;-70
2021/03/08 01:25:17;;;;;;;71.43;40.85;;;;;;;3.24;77.42;102430.44;5008173;28;20518;-69
2021/03/08 01:27:43;;;;;;;68.00;40.15;;;;;;;2.89;76.61;102375.63;4996807;28;20021;-71
2021/03/08 01:30:11;;;;;;;77.03;41.67;;;;;;;2.91;76.31;102383.50;5010173;28;20022;-70
2021/03/08 01:32:37;;;;;;;71.93;42.45;;;;;;;3.24;76.89;102430.44;4998919;28;20072;-69
2021/03/08 01:35:03;;;;;;;75.78;42.38;;;;;;;3.24;77.04;102426.94;5008235;28;20508;-71
2021/03/08 01:37:28;;;;;;;70.68;40.67;;;;;;;3.25;77.04;102420.75;5010330;28;20052;-70
2021/03/08 01:39:53;;;;;;;72.07;41.40;;;;;;;3.22;76.76;102421.72;5008288;28;20030;-70
2021/03/08 01:42:19;;;;;;;71.60;40.08;;;;;;;3.21;77.18;102422.63;5006872;28;20030;-70
2021/03/08 01:44:47;;;;;;;71.25;40.00;;;;;;;3.19;77.46;102414.81;5006237;28;20034;-70
2021/03/08 01:47:12;;;;;;;70.07;39.42;;;;;;;2.96;77.36;102378.00;5006757;28;20026;-71
2021/03/08 01:49:37;;;;;;;73.25;41.42;;;;;;;3.16;77.60;102417.56;5008317;28;20040;-71
2021/03/08 01:52:04;;;;;;;70.47;40.20;;;;;;;3.14;77.95;102410.66;5006990;28;20027;-69
2021/03/08 01:54:29;;;;;;;72.35;40.17;;;;;;;3.14;77.72;102418.56;5008208;28;20029;-69
2021/03/08 01:56:55;;;;;;;68.55;41.08;;;;;;;3.12;78.43;102417.75;5004523;28;20033;-69
2021/03/08 01:59:21;;;;;;;74.28;41.70;;;;;;;3.12;78.25;102415.13;5022189;28;20064;-69
2021/03/08 02:01:46;;;;;;;77.18;41.95;;;;;;;3.14;77.76;102410.66;5009492;28;20108;-71
2021/03/08 02:04:12;;;;;;;69.22;40.30;;;;;;;2.97;77.58;102375.28;5006898;28;20495;-69
2021/03/08 02:06:37;;;;;;;71.25;40.30;;;;;;;3.16;77.92;102401.72;5008372;28;20114;-69
2021/03/08 02:09:04;;;;;;;69.30;41.05;;;;;;;3.18;77.93;102399.06;5007733;28;20025;-69
2021/03/08 02:11:34;;;;;;;76.22;40.13;;;;;;;3.18;77.73;102401.69;5008005;28;20030;-69
2021/03/08 02:14:18;;;;;;;77.68;40.70;;;;;;;3.17;78.39;102398.19;5007977;28;20116;-69
2021/03/08 02:17:04;;;;;;;72.20;40.40;;;;;;;3.17;77.54;102386.78;5002216;28;20087;-71
2021/03/08 02:20:07;;;;;;;70.82;39.45;;;;;;;3.21;77.39;102388.34;5007177;28;20456;-68
2021/03/08 02:22:55;;;;;;;71.35;39.85;;;;;;;3.18;78.61;102386.69;5009023;28;20412;-71
2021/03/08 02:25:33;;;;;;;77.95;39.97;;;;;;;3.20;77.85;102387.50;5006882;28;20133;-70
2021/03/08 02:28:26;;;;;;;66.65;39.13;;;;;;;3.19;78.46;102382.28;5008242;28;20030;-71
2021/03/08 02:30:54;;;;;;;69.10;38.28;;;;;;;2.99;77.95;102349.72;5005616;28;20488;-70
2021/03/08 02:33:31;;;;;;;72.67;39.87;;;;;;;3.22;78.17;102379.50;5007075;28;20030;-71
2021/03/08 02:36:02;;;;;;;64.73;37.23;;;;;;;3.22;77.82;102379.50;5007276;28;20389;-70
2021/03/08 02:38:30;;;;;;;67.47;37.72;;;;;;;2.93;77.76;102330.66;5008343;28;20457;-70
2021/03/08 02:41:05;;;;;;;71.65;38.08;;;;;;;3.23;78.01;102383.84;5008039;28;20072;-71
2021/03/08 02:43:46;;;;;;;69.07;39.17;;;;;;;3.22;77.75;102385.66;5009180;28;20050;-70
2021/03/08 02:46:23;;;;;;;69.75;38.72;;;;;;;3.20;77.84;102384.84;5000944;28;20581;-70
2021/03/08 02:48:51;;;;;;;66.00;38.05;;;;;;;2.97;78.07;102340.16;5007273;28;20041;-70
2021/03/08 02:51:20;;;;;;;62.40;37.00;;;;;;;2.64;77.96;102291.47;5008083;28;20030;-70
2021/03/08 02:53:50;;;;;;;68.30;37.50;;;;;;;3.21;78.32;102373.38;5006892;28;20026;-68
2021/03/08 02:56:20;;;;;;;63.97;38.63;;;;;;;3.21;78.02;102373.38;5006884;28;20540;-70
2021/03/08 02:58:48;;;;;;;68.45;37.15;;;;;;;3.19;77.88;102377.03;5008872;28;20030;-70
2021/03/08 03:01:16;;;;;;;65.53;38.25;;;;;;;2.90;78.37;102327.22;5008165;28;20421;-71
2021/03/08 03:03:46;;;;;;;63.47;37.57;;;;;;;2.99;78.44;102346.19;5007547;28;20037;-68
2021/03/08 03:06:13;;;;;;;62.10;37.60;;;;;;;3.16;78.82;102364.78;5005883;28;20054;-68
2021/03/08 03:08:40;;;;;;;66.20;36.08;;;;;;;3.18;77.79;102362.13;5006811;28;20119;-69
2021/03/08 03:11:07;;;;;;;64.30;36.57;;;;;;;3.20;78.02;102365.50;5008648;28;20037;-68
2021/03/08 03:13:36;;;;;;;62.42;37.60;;;;;;;3.16;78.99;102362.16;5003217;28;20496;-69
2021/03/08 03:16:04;;;;;;;63.88;36.97;;;;;;;3.15;78.87;102364.88;5005417;28;20567;-70
2021/03/08 03:18:31;;;;;;;60.47;36.55;;;;;;;3.14;79.12;102371.06;5005624;28;20030;-71
2021/03/08 03:20:58;;;;;;;64.10;37.58;;;;;;;3.13;78.60;102372.84;5006031;28;20018;-68
2021/03/08 03:23:26;;;;;;;63.80;36.22;;;;;;;3.15;78.44;102372.78;5006808;28;20021;-68
2021/03/08 03:25:52;;;;;;;62.20;36.38;;;;;;;3.15;78.78;102359.59;5001564;28;20473;-71
2021/03/08 03:28:18;;;;;;;65.10;37.55;;;;;;;3.17;78.24;102371.78;5003767;28;20021;-70
2021/03/08 03:30:44;;;;;;;62.35;37.50;;;;;;;3.16;78.55;102370.06;5006415;28;20037;-70
2021/03/08 03:33:11;;;;;;;66.47;37.55;;;;;;;3.16;78.90;102366.59;5007473;28;20049;-70
2021/03/08 03:35:37;;;;;;;61.67;36.25;;;;;;;3.18;78.16;102364.75;5006831;28;20120;-72
2021/03/08 03:38:04;;;;;;;62.55;38.00;;;;;;;3.15;78.72;102359.59;5008228;28;20126;-71
2021/03/08 03:40:29;;;;;;;66.10;36.88;;;;;;;3.18;78.47;102365.59;5004209;28;20034;-71
2021/03/08 03:42:55;;;;;;;60.13;35.28;;;;;;;3.19;78.05;102369.09;5006690;28;20080;-71
2021/03/08 03:45:22;;;;;;;63.53;35.38;;;;;;;3.19;78.40;102358.56;5002978;28;20152;-70
2021/03/08 03:47:48;;;;;;;65.40;35.28;;;;;;;3.16;78.11;102364.78;5004910;28;20035;-72
2021/03/08 03:50:17;;;;;;;59.63;35.90;;;;;;;2.97;78.48;102333.09;5007349;28;20030;-71
2021/03/08 03:52:43;;;;;;;61.15;35.78;;;;;;;3.14;78.32;102369.28;5006250;28;20079;-71
2021/03/08 03:55:12;;;;;;;57.97;36.05;;;;;;;3.13;78.33;102375.47;5004850;28;20468;-70
2021/03/08 03:57:46;;;;;;;61.42;34.22;;;;;;;3.13;78.58;102366.72;5003556;28;20041;-70
2021/03/08 04:00:14;;;;;;;61.22;36.08;;;;;;;3.08;78.99;102374.84;5005627;28;20077;-69
2021/03/08 04:02:49;;;;;;;60.33;35.50;;;;;;;3.09;79.25;102373.03;5005253;28;20539;-70
2021/03/08 04:05:24;;;;;;;58.20;34.60;;;;;;;3.11;79.12;102368.56;5006680;28;20050;-70
2021/03/08 04:07:50;;;;;;;63.50;35.65;;;;;;;2.95;78.45;102356.03;5005380;28;20033;-71
2021/03/08 04:10:18;;;;;;;61.38;35.17;;;;;;;3.11;79.12;102373.84;5004375;28;20022;-71
2021/03/08 04:12:47;;;;;;;61.63;36.22;;;;;;;3.10;78.84;102375.63;5003983;28;20032;-71
2021/03/08 04:15:15;;;;;;;59.42;34.80;;;;;;;3.09;78.94;102379.19;5001881;28;20519;-72
2021/03/08 04:17:43;;;;;;;60.55;35.03;;;;;;;2.89;79.05;102354.53;5006142;28;20467;-71
2021/03/08 04:20:16;;;;;;;62.33;35.33;;;;;;;2.97;79.11;102367.38;5005457;28;20477;-69
2021/03/08 04:22:47;;;;;;;59.30;34.88;;;;;;;3.15;79.16;102391.25;5007334;28;20041;-71
2021/03/08 04:25:14;;;;;;;60.00;36.20;;;;;;;3.14;79.16;102392.19;5007002;28;20107;-72
2021/03/08 04:27:39;;;;;;;59.20;36.25;;;;;;;3.13;78.76;102393.09;5007240;28;20045;-72
2021/03/08 04:30:06;;;;;;;63.67;36.33;;;;;;;3.03;78.65;102384.72;5006734;28;20038;-71
2021/03/08 04:32:32;;;;;;;56.70;34.53;;;;;;;3.14;78.56;102394.81;5004379;28;20026;-71
2021/03/08 04:34:59;;;;;;;58.75;34.97;;;;;;;3.13;78.64;102396.59;5006317;28;20117;-71
2021/03/08 04:37:27;;;;;;;57.33;35.28;;;;;;;3.13;78.82;102393.09;5000881;28;20053;-71
2021/03/08 04:39:54;;;;;;;67.13;37.45;;;;;;;3.06;79.08;102387.22;5008490;28;20109;-72
2021/03/08 04:42:20;;;;;;;62.63;36.10;;;;;;;3.08;79.01;102387.16;5008231;28;20029;-70
2021/03/08 04:44:46;;;;;;;60.83;35.83;;;;;;;3.06;79.29;102389.88;5009403;28;20034;-69
2021/03/08 04:47:17;;;;;;;63.63;36.42;;;;;;;3.05;79.83;102394.28;5008715;28;20026;-70
2021/03/08 04:49:44;;;;;;;58.00;35.55;;;;;;;2.85;79.07;102354.72;5007466;28;20072;-69
2021/03/08 04:52:13;;;;;;;63.67;36.15;;;;;;;3.10;79.45;102394.09;5010121;28;20108;-72
2021/03/08 04:54:41;;;;;;;68.70;37.10;;;;;;;3.10;79.16;102388.81;5009468;28;20468;-72
2021/03/08 04:57:07;;;;;;;;;;;;;;;3.08;78.85;102397.72;5008558;28;20025;-72
2021/03/08 04:59:32;;;;;;;63.17;35.70;;;;;;;3.09;78.95;102402.94;5008865;28;19937;-72
2021/03/08 05:01:58;;;;;;;62.45;35.28;;;;;;;3.10;79.11;102395.88;5009796;28;20492;-72
2021/03/08 05:04:25;;;;;;;62.90;35.08;;;;;;;3.11;79.25;102394.94;5008329;28;20057;-71
2021/03/08 05:06:52;;;;;;;66.95;38.10;;;;;;;3.07;79.35;102391.59;5006691;28;20026;-72
2021/03/08 05:09:20;;;;;;;62.75;35.55;;;;;;;2.84;79.10;102360.91;5008040;28;20029;-72
2021/03/08 05:11:46;;;;;;;61.03;34.87;;;;;;;3.02;78.91;102386.50;5009769;28;20033;-72
2021/03/08 05:14:18;;;;;;;59.60;35.15;;;;;;;3.06;79.32;102393.34;5009913;28;20503;-72
2021/03/08 05:16:45;;;;;;;61.38;36.20;;;;;;;3.05;79.46;102388.16;5009975;28;20022;-70
2021/03/08 05:19:12;;;;;;;62.73;36.27;;;;;;;3.08;79.03;102395.94;5007846;28;20045;-72
2021/03/08 05:21:38;;;;;;;63.20;36.33;;;;;;;3.10;79.15;102388.81;5010754;28;20461;-72
2021/03/08 05:24:05;;;;;;;61.50;36.92;;;;;;;3.08;79.20;102384.53;5008380;28;20123;-72
2021/03/08 05:26:31;;;;;;;63.55;36.03;;;;;;;2.78;78.73;102340.09;5009892;28;20026;-72
2021/03/08 05:28:58;;;;;;;61.58;35.60;;;;;;;3.08;78.96;102380.13;5007050;28;20022;-72
2021/03/08 05:31:28;;;;;;;58.67;35.30;;;;;;;3.10;78.89;102386.19;5010624;28;20030;-69
2021/03/08 05:34:03;;;;;;;67.25;35.33;;;;;;;3.09;79.52;102387.09;5005828;28;20486;-72
2021/03/08 05:36:32;;;;;;;67.10;37.67;;;;;;;3.11;78.95;102374.72;5004852;28;20044;-71
2021/03/08 05:38:58;;;;;;;61.95;35.67;;;;;;;2.93;78.98;102357.88;5004733;28;20032;-72
2021/03/08 05:42:00;;;;;;;62.88;36.20;;;;;;;3.12;79.15;102375.56;5005715;28;20402;-72
2021/03/08 05:44:28;;;;;;;67.65;36.40;;;;;;;3.10;80.27;102377.41;5003705;28;20052;-72
2021/03/08 05:46:53;;;;;;;68.60;38.88;;;;;;;3.09;79.65;102384.47;5008187;28;20101;-72
2021/03/08 05:49:56;;;;;;;65.28;38.20;;;;;;;3.07;79.86;102396.88;5008677;28;20112;-72
2021/03/08 05:52:53;;;;;;;65.35;36.60;;;;;;;3.07;79.77;102394.22;4999518;28;20029;-70
2021/03/08 05:55:33;;;;;;;59.85;34.80;;;;;;;2.44;79.62;102282.63;5007762;28;20383;-72
2021/03/08 05:58:13;;;;;;;71.00;37.67;;;;;;;3.08;80.31;102398.59;5007912;28;20038;-72
2021/03/08 06:01:05;;;;;;;64.47;36.40;;;;;;;3.06;79.89;102396.00;5008245;28;20053;-72
2021/03/08 06:03:52;;;;;;;65.45;37.00;;;;;;;2.87;79.99;102372.19;5005490;28;20037;-69
2021/03/08 06:06:42;;;;;;;66.85;36.95;;;;;;;3.09;80.79;102396.78;5023302;28;20053;-70
2021/03/08 06:09:24;;;;;;;66.78;37.28;;;;;;;3.08;80.63;102398.59;5005773;28;20029;-70
2021/03/08 06:12:06;;;;;;;63.45;37.95;;;;;;;3.10;79.80;102407.28;5007228;28;20731;-69
2021/03/08 06:14:39;;;;;;;69.07;38.08;;;;;;;3.11;80.09;102403.72;5005644;28;20445;-69
2021/03/08 06:17:06;;;;;;;66.65;37.58;;;;;;;3.14;79.79;102405.38;5008134;28;20073;-72
2021/03/08 06:19:33;;;;;;;62.33;37.35;;;;;;;3.15;79.52;102407.09;4998796;28;20315;-71
2021/03/08 06:22:02;;;;;;;65.15;36.92;;;;;;;3.17;79.44;102408.72;5004520;28;20045;-71
2021/03/08 06:24:28;;;;;;;64.20;37.80;;;;;;;3.19;79.24;102412.16;5005583;28;20036;-72
2021/03/08 06:26:55;;;;;;;60.97;36.85;;;;;;;3.23;78.98;102412.88;5002719;28;20117;-71
2021/03/08 06:29:22;;;;;;;63.58;37.10;;;;;;;3.26;78.81;102415.38;5007086;28;20061;-70
2021/03/08 06:31:47;;;;;;;66.50;38.25;;;;;;;3.22;78.72;102412.03;5000089;28;20022;-70
2021/03/08 06:34:16;;;;;;;66.07;37.97;;;;;;;3.27;79.06;102417.09;5007717;28;20038;-70
2021/03/08 06:36:44;;;;;;;63.80;37.20;;;;;;;3.29;78.73;102417.91;5005142;28;20045;-69
2021/03/08 06:39:10;;;;;;;65.40;37.35;;;;;;;3.30;78.74;102416.97;5005625;28;20061;-69
2021/03/08 06:41:36;;;;;;;65.95;38.05;;;;;;;2.94;78.21;102364.03;5020355;28;20026;-70
2021/03/08 06:44:02;;;;;;;68.00;37.88;;;;;;;3.00;79.05;102367.25;5002471;28;20040;-69
2021/03/08 06:46:28;;;;;;;66.00;40.03;;;;;;;3.35;78.40;102420.25;4995507;28;20038;-71
2021/03/08 06:48:54;;;;;;;72.65;38.38;;;;;;;3.25;78.75;102397.00;5002824;28;20048;-71
2021/03/08 06:51:19;;;;;;;66.15;39.03;;;;;;;3.41;78.86;102420.94;5000819;28;20408;-71
2021/03/08 06:53:47;;;;;;;64.90;37.42;;;;;;;3.44;78.21;102423.44;4996822;28;20369;-70
2021/03/08 06:56:16;;;;;;;67.78;40.17;;;;;;;3.47;78.36;102421.50;4995287;28;20030;-72
2021/03/08 06:58:44;;;;;;;71.97;39.85;;;;;;;3.50;77.88;102421.38;4999653;28;20096;-72
2021/03/08 07:01:28;;;;;;;64.28;36.70;;;;;;;3.56;78.79;102427.28;5003600;28;20049;-71
2021/03/08 07:03:57;;;;;;;71.30;37.60;;;;;;;3.57;78.14;102432.53;5002343;28;20025;-72
2021/03/08 07:06:23;;;;;;;70.07;38.35;;;;;;;3.16;78.19;102359.53;5003180;28;20145;-71
2021/03/08 07:08:49;;;;;;;65.75;39.47;;;;;;;3.68;77.81;102432.03;5002406;28;20157;-72
2021/03/08 07:11:20;;;;;;;70.10;39.78;;;;;;;3.47;77.26;102388.97;5002377;28;20034;-67
2021/03/08 07:13:46;;;;;;;69.88;39.60;;;;;;;3.74;77.22;102434.41;5002372;28;20153;-71
2021/03/08 07:16:12;;;;;;;66.18;38.47;;;;;;;3.76;77.09;102432.56;5001986;28;20129;-71
2021/03/08 07:18:38;;;;;;;66.15;37.80;;;;;;;3.76;77.60;102424.63;5003619;28;20060;-71
2021/03/08 07:21:20;;;;;;;63.17;37.63;;;;;;;3.81;77.96;102424.41;5005430;28;20317;-68
2021/03/08 07:23:48;;;;;;;68.15;39.25;;;;;;;3.45;77.63;102367.09;5000434;28;20033;-72
2021/03/08 07:26:19;;;;;;;69.07;39.40;;;;;;;3.89;77.82;102434.63;5001597;28;20017;-72
2021/03/08 07:29:11;;;;;;;67.93;38.75;;;;;;;3.95;76.93;102431.69;5002286;28;20116;-72
2021/03/08 07:31:45;;;;;;;63.17;37.60;;;;;;;3.76;77.53;102397.34;4998654;28;20033;-68
2021/03/08 07:34:12;;;;;;;66.03;37.95;;;;;;;3.78;76.85;102395.50;4995636;28;20030;-68
2021/03/08 07:36:39;;;;;;;70.28;38.67;;;;;;;4.08;77.51;102429.34;4998864;28;20061;-68
2021/03/08 07:39:16;;;;;;;65.80;36.92;;;;;;;4.12;77.55;102434.41;4997703;28;20026;-68
2021/03/08 07:41:52;;;;;;;62.15;36.13;;;;;;;4.18;77.11;102435.91;4994154;28;20044;-72
2021/03/08 07:44:22;;;;;;;63.13;37.35;;;;;;;3.96;76.33;102397.31;5000721;28;20026;-72
2021/03/08 07:46:48;;;;;;;62.95;36.38;;;;;;;4.31;76.75;102446.78;4999672;28;20033;-72
2021/03/08 07:49:14;;;;;;;63.38;36.30;;;;;;;4.36;76.92;102441.25;5000369;28;20376;-73
2021/03/08 07:52:02;;;;;;;61.08;35.80;;;;;;;4.49;75.54;102446.81;4998349;28;20033;-72
2021/03/08 07:54:28;;;;;;;;;;;;;;;4.51;75.81;102452.88;5002462;28;20511;-72
2021/03/08 07:56:56;;;;;;;66.55;35.60;;;;;;;4.32;75.17;102416.78;4996989;28;19959;-72
2021/03/08 07:59:22;;;;;;;58.38;35.10;;;;;;;4.62;75.77;102457.66;4998438;28;20029;-68
2021/03/08 08:01:50;;;;;;;60.97;35.95;;;;;;;4.34;76.26;102414.91;4997084;28;20022;-68
2021/03/08 08:04:16;;;;;;;65.72;36.13;;;;;;;4.67;76.28;102458.31;4996213;28;20041;-68
2021/03/08 08:06:41;;;;;;;68.82;37.78;;;;;;;4.56;75.74;102427.91;4998704;28;20055;-68
2021/03/08 08:09:10;;;;;;;59.92;34.90;;;;;;;4.81;75.64;102458.47;5002921;28;20037;-68
2021/03/08 08:11:36;;;;;;;61.60;34.50;;;;;;;4.91;75.32;102456.22;5001216;28;20194;-68
2021/03/08 08:14:04;;;;;;;58.70;35.75;;;;;;;4.96;75.02;102459.50;4997116;28;20041;-68
2021/03/08 08:16:34;;;;;;;58.28;34.90;;;;;;;5.05;74.05;102456.38;4997864;28;20586;-68
2021/03/08 08:19:08;;;;;;;55.13;33.33;;;;;;;5.10;74.17;102458.78;5001701;28;20033;-68
2021/03/08 08:21:44;;;;;;;55.65;32.80;;;;;;;5.22;73.82;102447.56;5003907;28;20032;-68
2021/03/08 08:24:20;;;;;;;57.03;32.25;;;;;;;5.23;74.10;102461.69;5002779;28;20049;-67
2021/03/08 08:26:51;;;;;;;61.60;32.95;;;;;;;5.17;74.03;102439.03;5003084;28;20511;-68
2021/03/08 08:29:22;;;;;;;59.67;33.72;;;;;;;5.35;73.63;102453.09;5005793;28;20258;-68
2021/03/08 08:31:57;;;;;;;58.88;34.58;;;;;;;5.42;73.73;102452.81;5005358;28;20029;-68
2021/03/08 08:34:42;;;;;;;58.17;35.00;;;;;;;5.48;74.35;102449.81;5005446;28;20598;-68
2021/03/08 08:37:24;;;;;;;55.88;32.78;;;;;;;5.57;73.88;102453.78;5001859;28;20026;-68
2021/03/08 08:39:52;;;;;;;54.78;33.05;;;;;;;5.69;72.13;102463.72;5003411;28;20472;-68
2021/03/08 08:42:23;;;;;;;53.00;32.53;;;;;;;5.75;72.27;102455.47;5018308;28;20032;-68
2021/03/08 08:44:51;;;;;;;56.40;31.70;;;;;;;5.79;71.69;102467.59;5000581;28;20026;-67
2021/03/08 08:47:35;;;;;;;53.03;32.28;;;;;;;5.79;72.87;102464.94;5003668;28;20037;-68
2021/03/08 08:50:05;;;;;;;45.33;29.13;;;;;;;5.96;71.55;102460.53;5003669;28;20029;-68
2021/03/08 08:52:52;;;;;;;50.85;30.55;;;;;;;6.05;70.78;102460.06;5002215;28;20033;-68
2021/03/08 08:55:36;;;;;;;45.00;28.88;;;;;;;6.17;70.50;102457.69;5002827;28;20336;-68
2021/03/08 08:58:23;;;;;;;47.95;30.17;;;;;;;6.27;71.17;102450.94;5000839;28;20048;-68
2021/03/08 09:01:09;;;;;;;48.63;30.42;;;;;;;6.34;70.70;102459.41;4998794;28;20093;-68
2021/03/08 09:04:00;;;;;;;48.22;29.85;;;;;;;6.50;70.23;102460.25;5016809;28;20065;-68
2021/03/08 09:06:42;;;;;;;51.28;29.55;;;;;;;6.49;70.22;102461.19;4995801;28;20168;-68
2021/03/08 09:09:10;;;;;;;51.65;28.73;;;;;;;6.52;69.13;102446.91;5015054;28;20041;-68
2021/03/08 09:12:03;;;;;;;47.50;29.85;;;;;;;6.66;69.85;102454.94;5001461;28;20063;-68
2021/03/08 09:14:38;;;;;;;44.10;29.38;;;;;;;6.71;69.15;102450.22;4998092;28;20128;-67
2021/03/08 09:17:12;;;;;;;44.80;27.15;;;;;;;6.81;68.41;102449.69;4996797;28;20026;-67
2021/03/08 09:19:40;;;;;;;40.85;26.67;;;;;;;6.52;67.91;102405.31;5002812;28;20057;-68
2021/03/08 09:22:20;;;;;;;43.13;27.48;;;;;;;6.74;68.26;102443.88;5002598;28;20040;-68
2021/03/08 09:24:47;;;;;;;51.90;29.67;;;;;;;6.44;69.31;102420.81;5002911;28;20042;-68
2021/03/08 09:27:23;;;;;;;43.47;27.48;;;;;;;6.62;69.28;102447.25;4997564;28;20034;-68
2021/03/08 09:29:49;;;;;;;46.20;28.40;;;;;;;6.78;68.80;102447.19;5001700;28;20030;-68
2021/03/08 09:32:16;;;;;;;44.95;27.80;;;;;;;6.78;68.17;102415.34;4996262;28;20030;-68
2021/03/08 09:34:42;;;;;;;42.13;26.10;;;;;;;7.20;67.02;102446.47;5003583;28;20033;-68
2021/03/08 09:37:08;;;;;;;40.10;26.88;;;;;;;7.36;66.24;102448.19;5000972;28;20033;-68
2021/03/08 09:39:50;;;;;;;43.83;26.77;;;;;;;7.46;66.05;102448.50;5005890;28;20101;-68
2021/03/08 09:42:15;;;;;;;41.17;26.45;;;;;;;7.64;65.91;102455.38;5003792;28;20034;-68
2021/03/08 09:44:45;;;;;;;36.92;24.55;;;;;;;7.75;64.54;102428.09;5004483;28;20669;-74
2021/03/08 09:47:11;;;;;;;43.95;26.70;;;;;;;7.68;64.57;102447.19;4998227;28;20574;-73
2021/03/08 09:49:50;;;;;;;36.65;24.90;;;;;;;7.78;64.27;102445.69;5000531;28;20037;-74
2021/03/08 09:52:38;;;;;;;40.80;25.95;;;;;;;7.82;63.99;102441.88;5017314;28;20029;-74
2021/03/08 09:55:05;;;;;;;39.70;25.17;;;;;;;7.42;63.68;102360.19;4994022;28;20124;-73
2021/03/08 09:57:39;;;;;;;37.25;25.13;;;;;;;8.12;63.05;102441.75;4996976;28;20033;-73
2021/03/08 10:00:13;;;;;;;46.08;26.67;;;;;;;8.15;62.66;102443.34;4995989;28;20326;-73
2021/03/08 10:02:39;;;;;;;40.40;25.95;;;;;;;8.15;62.69;102440.69;4996504;28;20030;-73
2021/03/08 10:05:08;;;;;;;39.47;25.75;;;;;;;8.24;62.40;102442.75;4995816;28;20152;-73
2021/03/08 10:07:33;;;;;;;41.90;26.63;;;;;;;8.24;63.12;102441.91;4999702;28;20042;-73
2021/03/08 10:10:13;;;;;;;42.20;26.60;;;;;;;8.19;63.46;102436.91;5000028;28;20026;-73
2021/03/08 10:12:38;;;;;;;41.95;26.95;;;;;;;8.20;63.69;102435.06;4997269;28;20034;-73
2021/03/08 10:15:07;;;;;;;39.97;26.55;;;;;;;8.31;61.99;102443.22;4996991;28;20061;-73
2021/03/08 10:17:33;;;;;;;42.33;26.25;;;;;;;8.30;62.46;102443.31;4998816;28;20053;-73
2021/03/08 10:20:00;;;;;;;41.50;26.38;;;;;;;8.40;62.99;102445.31;4998931;28;20040;-73
2021/03/08 10:22:35;;;;;;;44.23;26.13;;;;;;;8.30;62.25;102408.75;5003018;28;20030;-73
2021/03/08 10:25:02;;;;;;;43.40;26.63;;;;;;;8.47;62.44;102432.44;5002641;28;20041;-74
2021/03/08 10:27:31;;;;;;;43.45;27.60;;;;;;;8.38;63.57;102435.69;5002390;28;20081;-73
2021/03/08 10:29:57;;;;;;;45.15;27.48;;;;;;;8.52;62.47;102426.84;4996688;28;20547;-74
2021/03/08 10:32:23;;;;;;;41.20;27.50;;;;;;;8.63;61.89;102419.00;5001481;28;20052;-73
2021/03/08 10:34:50;;;;;;;47.70;27.75;;;;;;;8.69;61.83;102433.72;4993769;28;20124;-73
2021/03/08 10:37:19;;;;;;;45.58;26.90;;;;;;;8.79;61.29;102424.16;4996320;28;20029;-74
2021/03/08 10:39:51;;;;;;;40.97;26.35;;;;;;;8.92;61.84;102426.00;4997511;28;20049;-74
2021/03/08 10:42:23;;;;;;;36.70;24.40;;;;;;;9.09;59.87;102419.56;5000730;28;20095;-74
2021/03/08 10:44:50;;;;;;;35.85;20.52;;;;;;;9.21;58.03;102420.50;4999427;28;21120;-74
2021/03/08 10:47:16;;;;;;;35.20;21.38;;;;;;;9.27;57.31;102423.59;5012536;28;20041;-74
2021/03/08 10:49:53;;;;;;;25.77;17.02;;;;;;;9.16;55.78;102419.00;5015278;28;20018;-74
2021/03/08 10:52:20;;;;;;;31.40;21.00;;;;;;;9.18;56.34;102414.41;4993962;28;20042;-73
2021/03/08 10:54:47;;;;;;;34.28;19.52;;;;;;;9.16;56.95;102420.81;5000960;28;20132;-73
2021/03/08 10:57:13;;;;;;;31.92;21.05;;;;;;;8.85;57.30;102391.81;4995526;28;20025;-73
2021/03/08 10:59:49;;;;;;;36.47;20.45;;;;;;;9.09;57.17;102423.06;4987105;28;20183;-72
2021/03/08 11:02:17;;;;;;;31.77;18.27;;;;;;;9.22;57.10;102420.41;5003000;28;20148;-68
2021/03/08 11:04:49;;;;;;;23.33;14.82;;;;;;;9.30;54.53;102401.22;5006006;28;20148;-68
2021/03/08 11:07:33;;;;;;;26.15;15.55;;;;;;;9.57;55.57;102421.59;5003872;28;20504;-68
2021/03/08 11:10:03;;;;;;;20.98;13.23;;;;;;;9.69;53.59;102431.38;5006603;28;20412;-73
2021/03/08 11:12:28;;;;;;;21.95;14.18;;;;;;;9.72;53.12;102425.81;5002563;28;20061;-73
2021/03/08 11:14:58;;;;;;;20.30;13.10;;;;;;;9.75;52.37;102411.44;5002569;28;20936;-72
2021/03/08 11:17:42;;;;;;;19.83;12.75;;;;;;;9.74;51.68;102396.41;5003285;28;20034;-73
2021/03/08 11:20:21;;;;;;;23.85;13.98;;;;;;;9.73;52.69;102427.53;5000806;28;20030;-72
2021/03/08 11:22:57;;;;;;;22.13;13.93;;;;;;;9.76;53.25;102427.31;5004990;28;20026;-72
2021/03/08 11:25:40;;;;;;;22.80;15.57;;;;;;;9.50;54.45;102422.00;4994654;28;20033;-73
2021/03/08 11:28:36;;;;;;;22.25;15.02;;;;;;;9.18;56.25;102429.56;5003117;28;20030;-72
2021/03/08 11:31:01;;;;;;;23.30;15.57;;;;;;;9.23;55.55;102415.94;5002248;28;20045;-73